DLH6CX EDDM-EPWA
Flight info
| Callsign | DLH6CX |
|---|---|
| Flight time | 1h 10m |
| Altitude | 30000 |
| Route | BIBAG3W BIBAG Y133 BEPAS/N0439F350 DCT VLM DCT ENORU DCT VAGSA N871 OKENO Q277 AGAVA |
| Aircraft | A319/M-SDE2E3FGIJ1LORWXYZ/HB1 |
Departure
| Time | 2026-05-07 19:10 |
|---|---|
| Airport | Munich Airport (EDDM) |
Arrival
| Time | 2026-05-07 20:21 |
|---|---|
| Airport | Warsaw Chopin Airport (EPWA) |
| Time | Latitude | Longitude | Altitude | Speed | Heading |
|---|---|---|---|---|---|
| 2026-05-07 18:32 | 48.35632 | 11.79970 | 1486 ft | 0 kts | 263° |
| 2026-05-07 18:57 | 48.35632 | 11.79973 | 1456 ft | 2 kts | 263° |
| 2026-05-07 18:57 | 48.35636 | 11.80011 | 1462 ft | 4 kts | 256° |
| 2026-05-07 18:57 | 48.35645 | 11.80048 | 1476 ft | 4 kts | 232° |
| 2026-05-07 18:58 | 48.35662 | 11.80066 | 1479 ft | 2 kts | 174° |
| 2026-05-07 18:58 | 48.35663 | 11.80066 | 1479 ft | 0 kts | 173° |
| 2026-05-07 19:01 | 48.35658 | 11.80067 | 1471 ft | 1 kts | 173° |
| 2026-05-07 19:01 | 48.35645 | 11.80092 | 1470 ft | 5 kts | 120° |
| 2026-05-07 19:01 | 48.35614 | 11.80140 | 1483 ft | 7 kts | 156° |
| 2026-05-07 19:02 | 48.35598 | 11.80102 | 1481 ft | 6 kts | 305° |
| 2026-05-07 19:02 | 48.35648 | 11.80093 | 1476 ft | 8 kts | 358° |
| 2026-05-07 19:02 | 48.35708 | 11.80080 | 1485 ft | 9 kts | 349° |
| 2026-05-07 19:02 | 48.35775 | 11.80064 | 1481 ft | 10 kts | 352° |
| 2026-05-07 19:03 | 48.35830 | 11.80007 | 1483 ft | 10 kts | 282° |
| 2026-05-07 19:03 | 48.35820 | 11.79889 | 1485 ft | 13 kts | 263° |
| 2026-05-07 19:03 | 48.35808 | 11.79736 | 1485 ft | 16 kts | 263° |
| 2026-05-07 19:03 | 48.35795 | 11.79570 | 1485 ft | 16 kts | 263° |
| 2026-05-07 19:04 | 48.35753 | 11.79480 | 1478 ft | 10 kts | 201° |
| 2026-05-07 19:04 | 48.35670 | 11.79484 | 1479 ft | 13 kts | 172° |
| 2026-05-07 19:04 | 48.35576 | 11.79504 | 1473 ft | 14 kts | 172° |
| 2026-05-07 19:04 | 48.35475 | 11.79518 | 1485 ft | 16 kts | 175° |
| 2026-05-07 19:05 | 48.35362 | 11.79538 | 1485 ft | 17 kts | 172° |
| 2026-05-07 19:05 | 48.35244 | 11.79561 | 1481 ft | 17 kts | 173° |
| 2026-05-07 19:05 | 48.35127 | 11.79581 | 1485 ft | 16 kts | 174° |
| 2026-05-07 19:05 | 48.35022 | 11.79603 | 1477 ft | 15 kts | 162° |
| 2026-05-07 19:06 | 48.34947 | 11.79681 | 1480 ft | 0 kts | 151° |
| 2026-05-07 19:07 | 48.34867 | 11.79690 | 1475 ft | 1 kts | 152° |
| 2026-05-07 19:07 | 48.34860 | 11.79696 | 1479 ft | 1 kts | 152° |
| 2026-05-07 19:07 | 48.34857 | 11.79698 | 1480 ft | 0 kts | 152° |
| 2026-05-07 19:07 | 48.34852 | 11.79700 | 1485 ft | 2 kts | 161° |
| 2026-05-07 19:08 | 48.34831 | 11.79705 | 1479 ft | 5 kts | 174° |
| 2026-05-07 19:08 | 48.34783 | 11.79710 | 1474 ft | 8 kts | 176° |
| 2026-05-07 19:08 | 48.34724 | 11.79712 | 1485 ft | 9 kts | 189° |
| 2026-05-07 19:08 | 48.34677 | 11.79652 | 1485 ft | 9 kts | 231° |
| 2026-05-07 19:09 | 48.34631 | 11.79551 | 1482 ft | 14 kts | 236° |
| 2026-05-07 19:09 | 48.34565 | 11.79426 | 1479 ft | 17 kts | 232° |
| 2026-05-07 19:09 | 48.34490 | 11.79277 | 1474 ft | 18 kts | 233° |
| 2026-05-07 19:09 | 48.34412 | 11.79122 | 1480 ft | 19 kts | 233° |
| 2026-05-07 19:10 | 48.34361 | 11.78921 | 1481 ft | 28 kts | 262° |
| 2026-05-07 19:10 | 48.34303 | 11.78216 | 1486 ft | 106 kts | 264° |
| 2026-05-07 19:10 | 48.34195 | 11.76795 | 1523 ft | 161 kts | 264° |
| 2026-05-07 19:10 | 48.34067 | 11.75181 | 2313 ft | 151 kts | 264° |
| 2026-05-07 19:11 | 48.33939 | 11.73603 | 2951 ft | 159 kts | 264° |
| 2026-05-07 19:11 | 48.33516 | 11.71974 | 3384 ft | 180 kts | 232° |
| 2026-05-07 19:11 | 48.32398 | 11.70923 | 3728 ft | 208 kts | 192° |
| 2026-05-07 19:11 | 48.30876 | 11.70773 | 4268 ft | 225 kts | 182° |
| 2026-05-07 19:12 | 48.29311 | 11.70839 | 5265 ft | 227 kts | 171° |
| 2026-05-07 19:12 | 48.27804 | 11.71678 | 6026 ft | 243 kts | 150° |
| 2026-05-07 19:12 | 48.26313 | 11.73205 | 6554 ft | 269 kts | 147° |
| 2026-05-07 19:12 | 48.24729 | 11.74840 | 6989 ft | 281 kts | 147° |
| 2026-05-07 19:13 | 48.23107 | 11.76504 | 7064 ft | 282 kts | 148° |
| 2026-05-07 19:13 | 48.21484 | 11.78158 | 7080 ft | 283 kts | 147° |
| 2026-05-07 19:13 | 48.20035 | 11.80148 | 7161 ft | 282 kts | 129° |
| 2026-05-07 19:13 | 48.19018 | 11.82692 | 7665 ft | 289 kts | 114° |
| 2026-05-07 19:14 | 48.18493 | 11.85612 | 8175 ft | 294 kts | 97° |
| 2026-05-07 19:14 | 48.18547 | 11.88694 | 8848 ft | 299 kts | 81° |
| 2026-05-07 19:14 | 48.19127 | 11.91708 | 9839 ft | 304 kts | 68° |
| 2026-05-07 19:14 | 48.19882 | 11.94723 | 10520 ft | 319 kts | 68° |
| 2026-05-07 19:15 | 48.20668 | 11.97848 | 11438 ft | 320 kts | 68° |
| 2026-05-07 19:15 | 48.21458 | 12.00991 | 12320 ft | 327 kts | 68° |
| 2026-05-07 19:15 | 48.22289 | 12.04297 | 12684 ft | 350 kts | 68° |
| 2026-05-07 19:15 | 48.23158 | 12.07769 | 13358 ft | 360 kts | 68° |
| 2026-05-07 19:16 | 48.24041 | 12.11307 | 14144 ft | 365 kts | 69° |
| 2026-05-07 19:16 | 48.24935 | 12.14896 | 14889 ft | 369 kts | 68° |
| 2026-05-07 19:16 | 48.25853 | 12.18514 | 15622 ft | 373 kts | 65° |
| 2026-05-07 19:16 | 48.27204 | 12.21830 | 16338 ft | 374 kts | 50° |
| 2026-05-07 19:17 | 48.28778 | 12.24968 | 17097 ft | 378 kts | 50° |
| 2026-05-07 19:17 | 48.30371 | 12.28124 | 17839 ft | 381 kts | 50° |
| 2026-05-07 19:17 | 48.31984 | 12.31314 | 18548 ft | 385 kts | 50° |
| 2026-05-07 19:17 | 48.33608 | 12.34532 | 19194 ft | 389 kts | 50° |
| 2026-05-07 19:18 | 48.35247 | 12.37792 | 19852 ft | 392 kts | 50° |
| 2026-05-07 19:18 | 48.36892 | 12.41079 | 20513 ft | 395 kts | 50° |
| 2026-05-07 19:18 | 48.38552 | 12.44402 | 21172 ft | 398 kts | 50° |
| 2026-05-07 19:18 | 48.40220 | 12.47743 | 21830 ft | 402 kts | 50° |
| 2026-05-07 19:19 | 48.41903 | 12.51122 | 22481 ft | 405 kts | 50° |
| 2026-05-07 19:19 | 48.43598 | 12.54533 | 23124 ft | 408 kts | 50° |
| 2026-05-07 19:19 | 48.45307 | 12.57977 | 23732 ft | 412 kts | 50° |
| 2026-05-07 19:19 | 48.47028 | 12.61444 | 24250 ft | 415 kts | 50° |
| 2026-05-07 19:20 | 48.48765 | 12.64939 | 24768 ft | 418 kts | 50° |
| 2026-05-07 19:20 | 48.50508 | 12.68464 | 25293 ft | 421 kts | 51° |
| 2026-05-07 19:20 | 48.52248 | 12.72027 | 25789 ft | 423 kts | 51° |
| 2026-05-07 19:20 | 48.53987 | 12.75625 | 26297 ft | 426 kts | 51° |
| 2026-05-07 19:21 | 48.55735 | 12.79260 | 26789 ft | 429 kts | 51° |
| 2026-05-07 19:21 | 48.57492 | 12.82918 | 27272 ft | 431 kts | 51° |
| 2026-05-07 19:21 | 48.59258 | 12.86591 | 27773 ft | 434 kts | 51° |
| 2026-05-07 19:21 | 48.61042 | 12.90300 | 28249 ft | 437 kts | 51° |
| 2026-05-07 19:22 | 48.62838 | 12.94027 | 28714 ft | 440 kts | 51° |
| 2026-05-07 19:22 | 48.64643 | 12.97771 | 29164 ft | 443 kts | 51° |
| 2026-05-07 19:22 | 48.66461 | 13.01554 | 29534 ft | 445 kts | 51° |
| 2026-05-07 19:22 | 48.68279 | 13.05357 | 29827 ft | 446 kts | 51° |
| 2026-05-07 19:23 | 48.70098 | 13.09180 | 30042 ft | 448 kts | 51° |
| 2026-05-07 19:23 | 48.71887 | 13.12953 | 30072 ft | 433 kts | 51° |
| 2026-05-07 19:23 | 48.73614 | 13.16607 | 30073 ft | 422 kts | 51° |
| 2026-05-07 19:23 | 48.75319 | 13.20206 | 30066 ft | 420 kts | 51° |
| 2026-05-07 19:24 | 48.78735 | 13.27398 | 30064 ft | 421 kts | 51° |
| 2026-05-07 19:24 | 48.82149 | 13.34617 | 30068 ft | 421 kts | 51° |
| 2026-05-07 19:25 | 48.85554 | 13.41843 | 30062 ft | 421 kts | 51° |
| 2026-05-07 19:25 | 48.88959 | 13.49085 | 30059 ft | 421 kts | 51° |
| 2026-05-07 19:26 | 48.92454 | 13.56202 | 30054 ft | 419 kts | 48° |
| 2026-05-07 19:26 | 48.96175 | 13.63095 | 30158 ft | 430 kts | 47° |
| 2026-05-07 19:27 | 48.98113 | 13.66628 | 30270 ft | 441 kts | 47° |
| 2026-05-07 19:27 | 49.00092 | 13.70268 | 30456 ft | 449 kts | 48° |
| 2026-05-07 19:27 | 49.02074 | 13.73965 | 30829 ft | 451 kts | 48° |
| 2026-05-07 19:27 | 49.04045 | 13.77689 | 31244 ft | 453 kts | 49° |
| 2026-05-07 19:28 | 49.06018 | 13.81448 | 31631 ft | 455 kts | 50° |
| 2026-05-07 19:28 | 49.07996 | 13.85227 | 32048 ft | 456 kts | 50° |
| 2026-05-07 19:28 | 49.09977 | 13.89013 | 32482 ft | 457 kts | 50° |
| 2026-05-07 19:28 | 49.11962 | 13.92801 | 32934 ft | 458 kts | 50° |
| 2026-05-07 19:29 | 49.13950 | 13.96597 | 33408 ft | 458 kts | 50° |
| 2026-05-07 19:29 | 49.15935 | 14.00394 | 33892 ft | 457 kts | 50° |
| 2026-05-07 19:29 | 49.17921 | 14.04191 | 34287 ft | 457 kts | 50° |
| 2026-05-07 19:29 | 49.19903 | 14.07985 | 34639 ft | 458 kts | 50° |
| 2026-05-07 19:30 | 49.21888 | 14.11790 | 34952 ft | 459 kts | 51° |
| 2026-05-07 19:30 | 49.23878 | 14.15611 | 35033 ft | 459 kts | 51° |
| 2026-05-07 19:30 | 49.27849 | 14.23256 | 35040 ft | 459 kts | 51° |
| 2026-05-07 19:31 | 49.31810 | 14.30918 | 35042 ft | 458 kts | 51° |
| 2026-05-07 19:31 | 49.35766 | 14.38578 | 35035 ft | 458 kts | 51° |
| 2026-05-07 19:32 | 49.39722 | 14.46263 | 35030 ft | 460 kts | 51° |
| 2026-05-07 19:32 | 49.43679 | 14.53977 | 35025 ft | 460 kts | 51° |
| 2026-05-07 19:33 | 49.47636 | 14.61691 | 35024 ft | 460 kts | 51° |
| 2026-05-07 19:33 | 49.51590 | 14.69424 | 35029 ft | 460 kts | 52° |
| 2026-05-07 19:34 | 49.55530 | 14.77165 | 35022 ft | 459 kts | 52° |
| 2026-05-07 19:34 | 49.59463 | 14.84926 | 35020 ft | 459 kts | 52° |
| 2026-05-07 19:35 | 49.63385 | 14.92697 | 35015 ft | 459 kts | 52° |
| 2026-05-07 19:35 | 49.67304 | 15.00478 | 35012 ft | 459 kts | 52° |
| 2026-05-07 19:36 | 49.71219 | 15.08262 | 34997 ft | 459 kts | 52° |
| 2026-05-07 19:36 | 49.75129 | 15.16063 | 34998 ft | 459 kts | 52° |
| 2026-05-07 19:37 | 49.79024 | 15.23900 | 34993 ft | 459 kts | 53° |
| 2026-05-07 19:37 | 49.82916 | 15.31752 | 34994 ft | 459 kts | 53° |
| 2026-05-07 19:38 | 49.86802 | 15.39617 | 34999 ft | 459 kts | 53° |
| 2026-05-07 19:38 | 49.90678 | 15.47487 | 34998 ft | 459 kts | 53° |
| 2026-05-07 19:39 | 49.94552 | 15.55364 | 34997 ft | 459 kts | 53° |
| 2026-05-07 19:39 | 49.97800 | 15.61971 | 35024 ft | 459 kts | 53° |
| 2026-05-07 19:40 | 50.02290 | 15.71140 | 35006 ft | 459 kts | 54° |
| 2026-05-07 19:40 | 50.06171 | 15.79119 | 35006 ft | 460 kts | 54° |
| 2026-05-07 19:41 | 50.10029 | 15.87072 | 35005 ft | 460 kts | 54° |
| 2026-05-07 19:41 | 50.13238 | 15.93689 | 35002 ft | 461 kts | 54° |
| 2026-05-07 19:42 | 50.17721 | 16.02974 | 34988 ft | 461 kts | 54° |
| 2026-05-07 19:42 | 50.20944 | 16.09675 | 34992 ft | 461 kts | 54° |
| 2026-05-07 19:43 | 50.24794 | 16.17687 | 34989 ft | 461 kts | 54° |
| 2026-05-07 19:43 | 50.28641 | 16.25716 | 34994 ft | 462 kts | 54° |
| 2026-05-07 19:44 | 50.32495 | 16.33768 | 34989 ft | 462 kts | 52° |
| 2026-05-07 19:44 | 50.37165 | 16.40666 | 34990 ft | 464 kts | 37° |
| 2026-05-07 19:45 | 50.42353 | 16.46703 | 34996 ft | 465 kts | 37° |
| 2026-05-07 19:45 | 50.47537 | 16.52764 | 35004 ft | 465 kts | 37° |
| 2026-05-07 19:46 | 50.52731 | 16.58851 | 35014 ft | 466 kts | 37° |
| 2026-05-07 19:46 | 50.57921 | 16.64958 | 35015 ft | 466 kts | 37° |
| 2026-05-07 19:47 | 50.63112 | 16.71083 | 35015 ft | 466 kts | 38° |
| 2026-05-07 19:47 | 50.68299 | 16.77221 | 35019 ft | 466 kts | 38° |
| 2026-05-07 19:48 | 50.73485 | 16.83364 | 35025 ft | 466 kts | 38° |
| 2026-05-07 19:48 | 50.78665 | 16.89522 | 35038 ft | 466 kts | 38° |
| 2026-05-07 19:49 | 50.83844 | 16.95701 | 35043 ft | 466 kts | 38° |
| 2026-05-07 19:49 | 50.89017 | 17.01878 | 35051 ft | 466 kts | 38° |
| 2026-05-07 19:50 | 50.94191 | 17.08079 | 35056 ft | 466 kts | 38° |
| 2026-05-07 19:50 | 50.99361 | 17.14293 | 35057 ft | 466 kts | 38° |
| 2026-05-07 19:51 | 51.04528 | 17.20522 | 35057 ft | 467 kts | 38° |
| 2026-05-07 19:51 | 51.09702 | 17.26777 | 35050 ft | 467 kts | 38° |
| 2026-05-07 19:52 | 51.14877 | 17.33051 | 35045 ft | 468 kts | 39° |
| 2026-05-07 19:52 | 51.20052 | 17.39352 | 35020 ft | 469 kts | 39° |
| 2026-05-07 19:53 | 51.25241 | 17.45681 | 35022 ft | 470 kts | 40° |
| 2026-05-07 19:53 | 51.29967 | 17.52848 | 34968 ft | 467 kts | 61° |
| 2026-05-07 19:54 | 51.31404 | 17.57485 | 34736 ft | 464 kts | 78° |
| 2026-05-07 19:54 | 51.32092 | 17.62482 | 34501 ft | 459 kts | 86° |
| 2026-05-07 19:54 | 51.32616 | 17.67511 | 34267 ft | 458 kts | 87° |
| 2026-05-07 19:54 | 51.33145 | 17.72518 | 34034 ft | 456 kts | 87° |
| 2026-05-07 19:55 | 51.33675 | 17.77498 | 33766 ft | 454 kts | 87° |
| 2026-05-07 19:55 | 51.34207 | 17.82469 | 33487 ft | 452 kts | 87° |
| 2026-05-07 19:55 | 51.34735 | 17.87413 | 33206 ft | 449 kts | 87° |
| 2026-05-07 19:55 | 51.35255 | 17.92324 | 32936 ft | 447 kts | 87° |
| 2026-05-07 19:56 | 51.35767 | 17.97210 | 32629 ft | 445 kts | 87° |
| 2026-05-07 19:56 | 51.36272 | 18.02076 | 32364 ft | 441 kts | 88° |
| 2026-05-07 19:56 | 51.36772 | 18.06905 | 32103 ft | 439 kts | 88° |
| 2026-05-07 19:56 | 51.37282 | 18.11716 | 31840 ft | 438 kts | 88° |
| 2026-05-07 19:57 | 51.37836 | 18.16507 | 31577 ft | 437 kts | 87° |
| 2026-05-07 19:57 | 51.38417 | 18.21265 | 31327 ft | 435 kts | 86° |
| 2026-05-07 19:57 | 51.39224 | 18.25964 | 31075 ft | 441 kts | 78° |
| 2026-05-07 19:57 | 51.40236 | 18.30586 | 30810 ft | 438 kts | 78° |
| 2026-05-07 19:58 | 51.41242 | 18.35179 | 30562 ft | 436 kts | 78° |
| 2026-05-07 19:58 | 51.42243 | 18.39747 | 30316 ft | 434 kts | 78° |
| 2026-05-07 19:58 | 51.43236 | 18.44291 | 30065 ft | 431 kts | 79° |
| 2026-05-07 19:58 | 51.44223 | 18.48816 | 29778 ft | 429 kts | 79° |
| 2026-05-07 19:59 | 51.45202 | 18.53317 | 29492 ft | 427 kts | 79° |
| 2026-05-07 19:59 | 51.46175 | 18.57811 | 29173 ft | 426 kts | 78° |
| 2026-05-07 19:59 | 51.47143 | 18.62299 | 28891 ft | 426 kts | 78° |
| 2026-05-07 19:59 | 51.48101 | 18.66782 | 28605 ft | 424 kts | 78° |
| 2026-05-07 20:00 | 51.49046 | 18.71249 | 28342 ft | 422 kts | 78° |
| 2026-05-07 20:00 | 51.49983 | 18.75711 | 28067 ft | 421 kts | 78° |
| 2026-05-07 20:00 | 51.50914 | 18.80167 | 27793 ft | 421 kts | 78° |
| 2026-05-07 20:00 | 51.51845 | 18.84618 | 27525 ft | 420 kts | 78° |
| 2026-05-07 20:01 | 51.52776 | 18.89059 | 27265 ft | 419 kts | 78° |
| 2026-05-07 20:01 | 51.53705 | 18.93485 | 27004 ft | 417 kts | 78° |
| 2026-05-07 20:01 | 51.54629 | 18.97894 | 26744 ft | 416 kts | 78° |
| 2026-05-07 20:01 | 51.55543 | 19.02286 | 26483 ft | 414 kts | 78° |
| 2026-05-07 20:02 | 51.56450 | 19.06669 | 26228 ft | 412 kts | 78° |
| 2026-05-07 20:02 | 51.57349 | 19.11044 | 25973 ft | 411 kts | 78° |
| 2026-05-07 20:02 | 51.58243 | 19.15392 | 25727 ft | 410 kts | 78° |
| 2026-05-07 20:02 | 51.59136 | 19.19733 | 25484 ft | 408 kts | 78° |
| 2026-05-07 20:03 | 51.60025 | 19.24057 | 25234 ft | 407 kts | 78° |
| 2026-05-07 20:03 | 51.60912 | 19.28375 | 24990 ft | 405 kts | 78° |
| 2026-05-07 20:03 | 51.61790 | 19.32667 | 24749 ft | 404 kts | 78° |
| 2026-05-07 20:03 | 51.62668 | 19.36966 | 24510 ft | 403 kts | 78° |
| 2026-05-07 20:04 | 51.63540 | 19.41235 | 24269 ft | 401 kts | 78° |
| 2026-05-07 20:04 | 51.64408 | 19.45495 | 24035 ft | 400 kts | 78° |
| 2026-05-07 20:04 | 51.65270 | 19.49738 | 23802 ft | 398 kts | 78° |
| 2026-05-07 20:04 | 51.66125 | 19.53964 | 23563 ft | 396 kts | 78° |
| 2026-05-07 20:05 | 51.66976 | 19.58177 | 23283 ft | 395 kts | 78° |
| 2026-05-07 20:05 | 51.67821 | 19.62383 | 23011 ft | 393 kts | 78° |
| 2026-05-07 20:05 | 51.68661 | 19.66566 | 22737 ft | 392 kts | 78° |
| 2026-05-07 20:05 | 51.69496 | 19.70729 | 22476 ft | 390 kts | 77° |
| 2026-05-07 20:06 | 51.70329 | 19.74881 | 22166 ft | 387 kts | 77° |
| 2026-05-07 20:06 | 51.71150 | 19.78968 | 21798 ft | 381 kts | 77° |
| 2026-05-07 20:06 | 51.71958 | 19.83013 | 21348 ft | 378 kts | 77° |
| 2026-05-07 20:06 | 51.72758 | 19.87024 | 20889 ft | 375 kts | 77° |
| 2026-05-07 20:07 | 51.73553 | 19.91020 | 20439 ft | 373 kts | 77° |
| 2026-05-07 20:07 | 51.74342 | 19.94992 | 19986 ft | 371 kts | 77° |
| 2026-05-07 20:07 | 51.75124 | 19.98948 | 19538 ft | 369 kts | 76° |
| 2026-05-07 20:07 | 51.75901 | 20.02890 | 19099 ft | 368 kts | 76° |
| 2026-05-07 20:08 | 51.76673 | 20.06821 | 18656 ft | 367 kts | 76° |
| 2026-05-07 20:08 | 51.77440 | 20.10743 | 18203 ft | 367 kts | 76° |
| 2026-05-07 20:08 | 51.78208 | 20.14668 | 17736 ft | 365 kts | 76° |
| 2026-05-07 20:08 | 51.78972 | 20.18559 | 17306 ft | 363 kts | 75° |
| 2026-05-07 20:09 | 51.79731 | 20.22429 | 16876 ft | 360 kts | 75° |
| 2026-05-07 20:09 | 51.80482 | 20.26275 | 16453 ft | 358 kts | 75° |
| 2026-05-07 20:09 | 51.81227 | 20.30110 | 16033 ft | 356 kts | 75° |
| 2026-05-07 20:10 | 51.82702 | 20.37703 | 15201 ft | 352 kts | 74° |
| 2026-05-07 20:10 | 51.83434 | 20.41471 | 14788 ft | 350 kts | 74° |
| 2026-05-07 20:10 | 51.84159 | 20.45218 | 14379 ft | 348 kts | 74° |
| 2026-05-07 20:10 | 51.84879 | 20.48950 | 13952 ft | 347 kts | 74° |
| 2026-05-07 20:11 | 51.85595 | 20.52670 | 13486 ft | 346 kts | 74° |
| 2026-05-07 20:11 | 51.86305 | 20.56361 | 13073 ft | 342 kts | 73° |
| 2026-05-07 20:11 | 51.87008 | 20.60029 | 12649 ft | 339 kts | 73° |
| 2026-05-07 20:11 | 51.87700 | 20.63657 | 12237 ft | 336 kts | 73° |
| 2026-05-07 20:12 | 51.88385 | 20.67258 | 11810 ft | 334 kts | 73° |
| 2026-05-07 20:12 | 51.89059 | 20.70815 | 11439 ft | 327 kts | 73° |
| 2026-05-07 20:12 | 51.89720 | 20.74309 | 10950 ft | 322 kts | 73° |
| 2026-05-07 20:12 | 51.90360 | 20.77709 | 10664 ft | 309 kts | 74° |
| 2026-05-07 20:13 | 51.90973 | 20.81001 | 10174 ft | 303 kts | 74° |
| 2026-05-07 20:13 | 51.91574 | 20.84245 | 9592 ft | 299 kts | 74° |
| 2026-05-07 20:13 | 51.92166 | 20.87451 | 8968 ft | 296 kts | 73° |
| 2026-05-07 20:13 | 51.92751 | 20.90625 | 8341 ft | 293 kts | 73° |
| 2026-05-07 20:14 | 51.93330 | 20.93768 | 7714 ft | 290 kts | 73° |
| 2026-05-07 20:14 | 51.93904 | 20.96886 | 7090 ft | 287 kts | 73° |
| 2026-05-07 20:14 | 51.94467 | 20.99961 | 6534 ft | 282 kts | 73° |
| 2026-05-07 20:14 | 51.95015 | 21.02972 | 6028 ft | 275 kts | 73° |
| 2026-05-07 20:15 | 51.95550 | 21.05911 | 5507 ft | 269 kts | 73° |
| 2026-05-07 20:15 | 51.96116 | 21.08754 | 5012 ft | 261 kts | 64° |
| 2026-05-07 20:15 | 51.97271 | 21.10891 | 4508 ft | 250 kts | 28° |
| 2026-05-07 20:15 | 51.98896 | 21.11569 | 3991 ft | 239 kts | 354° |
| 2026-05-07 20:16 | 52.00434 | 21.10783 | 3485 ft | 228 kts | 330° |
| 2026-05-07 20:16 | 52.01786 | 21.09598 | 3058 ft | 212 kts | 330° |
| 2026-05-07 20:16 | 52.03010 | 21.08526 | 3009 ft | 187 kts | 331° |
| 2026-05-07 20:16 | 52.04108 | 21.07570 | 2911 ft | 170 kts | 331° |
| 2026-05-07 20:17 | 52.05121 | 21.06690 | 2708 ft | 160 kts | 332° |
| 2026-05-07 20:17 | 52.06081 | 21.05856 | 2515 ft | 153 kts | 332° |
| 2026-05-07 20:17 | 52.06994 | 21.05062 | 2308 ft | 145 kts | 333° |
| 2026-05-07 20:17 | 52.07856 | 21.04294 | 2047 ft | 135 kts | 332° |
| 2026-05-07 20:18 | 52.08642 | 21.03604 | 1824 ft | 124 kts | 334° |
| 2026-05-07 20:18 | 52.09398 | 21.02950 | 1626 ft | 122 kts | 333° |
| 2026-05-07 20:18 | 52.09896 | 21.02514 | 1519 ft | 124 kts | 333° |
| 2026-05-07 20:18 | 52.10658 | 21.01843 | 1399 ft | 125 kts | 333° |
| 2026-05-07 20:19 | 52.11435 | 21.01168 | 1239 ft | 128 kts | 334° |
| 2026-05-07 20:19 | 52.12225 | 21.00499 | 1092 ft | 127 kts | 333° |
| 2026-05-07 20:19 | 52.12993 | 20.99814 | 953 ft | 125 kts | 333° |
| 2026-05-07 20:19 | 52.13763 | 20.99166 | 763 ft | 124 kts | 332° |
| 2026-05-07 20:20 | 52.14518 | 20.98510 | 591 ft | 123 kts | 332° |
| 2026-05-07 20:20 | 52.15276 | 20.97842 | 437 ft | 125 kts | 333° |
| 2026-05-07 20:20 | 52.16022 | 20.97199 | 342 ft | 109 kts | 332° |
| 2026-05-07 20:20 | 52.16541 | 20.96743 | 336 ft | 56 kts | 331° |
| 2026-05-07 20:21 | 52.16796 | 20.96539 | 336 ft | 32 kts | 344° |
| 2026-05-07 20:21 | 52.16968 | 20.96509 | 337 ft | 16 kts | 1° |
| 2026-05-07 20:21 | 52.17055 | 20.96515 | 335 ft | 7 kts | 5° |
| 2026-05-07 20:21 | 52.17078 | 20.96532 | 338 ft | 3 kts | 44° |
| 2026-05-07 20:22 | 52.17090 | 20.96564 | 337 ft | 4 kts | 62° |
| 2026-05-07 20:22 | 52.17103 | 20.96606 | 336 ft | 5 kts | 62° |
| 2026-05-07 20:22 | 52.17113 | 20.96634 | 338 ft | 2 kts | 62° |
| 2026-05-07 20:22 | 52.17120 | 20.96657 | 337 ft | 3 kts | 61° |
| 2026-05-07 20:23 | 52.17139 | 20.96713 | 339 ft | 7 kts | 62° |
| 2026-05-07 20:23 | 52.17163 | 20.96794 | 337 ft | 9 kts | 73° |
| 2026-05-07 20:23 | 52.17129 | 20.96866 | 337 ft | 9 kts | 151° |
| 2026-05-07 20:23 | 52.17069 | 20.96919 | 337 ft | 10 kts | 151° |
| 2026-05-07 20:24 | 52.17023 | 20.96985 | 339 ft | 8 kts | 92° |
| 2026-05-07 20:24 | 52.17038 | 20.97056 | 337 ft | 3 kts | 70° |
| 2026-05-07 20:24 | 52.17046 | 20.97096 | 338 ft | 3 kts | 70° |
| 2026-05-07 20:24 | 52.17049 | 20.97110 | 339 ft | 0 kts | 70° |